Sumy, Ukraine
Current Conditions -  °F | °C
As of 12:30 PM on Sunday 26 Oct 2014 (Local Time) from UUOB Reporting Station
Clear Clear  
Wind Chill: 24°   Ceiling: Unl
Heat Index: 30°   Visibility: 6mi
Dew Point: 14°   Wind: 7mph
Humidity: 51%   Direction: 120°ESE
Pressure: 30.68"   Gusts: NA
Location:  50.92°N, 34.78°E
Report Text: UUOB 260930Z 12003MPS CAVOK M01/M10 Q1039 11090060 NOSIG
Loading
Personal Weather Stations






























Interactive Weather Map
Tropical Storm Tracking
New forecast layout! Learn more

10-Day Weather Forecast

Advertisements
Track Severe Weather on mobile